sensor_id;sensor_type;location;lat;lon;timestamp;P1;durP1;ratioP1;P2;durP2;ratioP2
9912;SDS011;41380;52.548;13.344;2022-10-12T00:00:34;10.43;;;7.30;;
9912;SDS011;41380;52.548;13.344;2022-10-12T00:03:03;11.77;;;7.70;;
9912;SDS011;41380;52.548;13.344;2022-10-12T00:05:30;18.53;;;8.80;;
9912;SDS011;41380;52.548;13.344;2022-10-12T00:07:58;16.07;;;8.13;;
9912;SDS011;41380;52.548;13.344;2022-10-12T00:10:26;13.57;;;7.70;;
9912;SDS011;41380;52.548;13.344;2022-10-12T00:12:52;17.50;;;8.17;;
9912;SDS011;41380;52.548;13.344;2022-10-12T00:15:19;14.23;;;7.87;;
9912;SDS011;41380;52.548;13.344;2022-10-12T00:17:46;9.97;;;7.13;;
9912;SDS011;41380;52.548;13.344;2022-10-12T00:20:13;13.87;;;7.47;;
9912;SDS011;41380;52.548;13.344;2022-10-12T00:22:40;14.13;;;7.50;;
9912;SDS011;41380;52.548;13.344;2022-10-12T00:25:07;9.00;;;6.73;;
9912;SDS011;41380;52.548;13.344;2022-10-12T00:27:35;10.83;;;6.73;;
9912;SDS011;41380;52.548;13.344;2022-10-12T00:30:02;10.30;;;6.93;;
9912;SDS011;41380;52.548;13.344;2022-10-12T00:32:30;13.20;;;7.33;;
9912;SDS011;41380;52.548;13.344;2022-10-12T00:34:56;12.83;;;7.33;;
9912;SDS011;41380;52.548;13.344;2022-10-12T00:37:23;11.27;;;6.97;;
9912;SDS011;41380;52.548;13.344;2022-10-12T00:39:50;8.73;;;6.13;;
9912;SDS011;41380;52.548;13.344;2022-10-12T00:42:17;13.63;;;6.90;;
9912;SDS011;41380;52.548;13.344;2022-10-12T00:44:47;10.87;;;6.43;;
9912;SDS011;41380;52.548;13.344;2022-10-12T00:47:22;11.23;;;7.00;;
9912;SDS011;41380;52.548;13.344;2022-10-12T00:49:54;11.07;;;6.70;;
9912;SDS011;41380;52.548;13.344;2022-10-12T00:52:25;10.17;;;6.23;;
9912;SDS011;41380;52.548;13.344;2022-10-12T00:54:57;9.73;;;5.97;;
9912;SDS011;41380;52.548;13.344;2022-10-12T00:57:25;10.23;;;6.13;;
9912;SDS011;41380;52.548;13.344;2022-10-12T00:59:54;10.90;;;6.63;;
9912;SDS011;41380;52.548;13.344;2022-10-12T01:02:26;11.30;;;7.13;;
9912;SDS011;41380;52.548;13.344;2022-10-12T01:04:56;13.50;;;7.07;;
9912;SDS011;41380;52.548;13.344;2022-10-12T01:07:23;13.73;;;7.27;;
9912;SDS011;41380;52.548;13.344;2022-10-12T01:09:50;10.57;;;5.87;;
9912;SDS011;41380;52.548;13.344;2022-10-12T01:12:18;9.87;;;5.93;;
9912;SDS011;41380;52.548;13.344;2022-10-12T01:14:46;12.73;;;6.03;;
9912;SDS011;41380;52.548;13.344;2022-10-12T01:17:18;9.37;;;6.10;;
9912;SDS011;41380;52.548;13.344;2022-10-12T01:20:09;9.07;;;5.30;;
9912;SDS011;41380;52.548;13.344;2022-10-12T01:23:18;10.40;;;5.90;;
9912;SDS011;41380;52.548;13.344;2022-10-12T01:26:15;8.67;;;5.73;;
9912;SDS011;41380;52.548;13.344;2022-10-12T01:29:03;8.83;;;6.13;;
9912;SDS011;41380;52.548;13.344;2022-10-12T01:31:42;9.43;;;5.60;;
9912;SDS011;41380;52.548;13.344;2022-10-12T01:34:17;8.13;;;5.30;;
9912;SDS011;41380;52.548;13.344;2022-10-12T01:36:47;9.07;;;5.70;;
9912;SDS011;41380;52.548;13.344;2022-10-12T01:39:20;12.87;;;5.80;;
9912;SDS011;41380;52.548;13.344;2022-10-12T01:41:51;8.37;;;5.80;;
9912;SDS011;41380;52.548;13.344;2022-10-12T01:44:21;12.27;;;5.80;;
9912;SDS011;41380;52.548;13.344;2022-10-12T01:46:51;9.27;;;5.70;;
9912;SDS011;41380;52.548;13.344;2022-10-12T01:49:20;12.37;;;6.63;;
9912;SDS011;41380;52.548;13.344;2022-10-12T01:54:51;11.23;;;5.87;;
9912;SDS011;41380;52.548;13.344;2022-10-12T01:57:38;10.07;;;6.20;;
9912;SDS011;41380;52.548;13.344;2022-10-12T02:00:14;12.63;;;5.83;;
9912;SDS011;41380;52.548;13.344;2022-10-12T02:02:47;9.40;;;5.40;;
9912;SDS011;41380;52.548;13.344;2022-10-12T02:05:21;6.83;;;4.97;;
9912;SDS011;41380;52.548;13.344;2022-10-12T02:07:58;8.70;;;5.27;;
9912;SDS011;41380;52.548;13.344;2022-10-12T02:10:32;9.00;;;4.93;;
9912;SDS011;41380;52.548;13.344;2022-10-12T02:13:06;10.43;;;5.50;;
9912;SDS011;41380;52.548;13.344;2022-10-12T02:15:37;11.63;;;5.83;;
9912;SDS011;41380;52.548;13.344;2022-10-12T02:18:09;10.03;;;5.20;;
9912;SDS011;41380;52.548;13.344;2022-10-12T02:20:39;8.37;;;5.33;;
9912;SDS011;41380;52.548;13.344;2022-10-12T02:23:07;10.70;;;5.23;;
9912;SDS011;41380;52.548;13.344;2022-10-12T02:25:36;9.23;;;5.37;;
9912;SDS011;41380;52.548;13.344;2022-10-12T02:28:06;8.53;;;4.70;;
9912;SDS011;41380;52.548;13.344;2022-10-12T02:30:37;8.70;;;4.90;;
9912;SDS011;41380;52.548;13.344;2022-10-12T02:33:12;7.50;;;5.17;;
9912;SDS011;41380;52.548;13.344;2022-10-12T02:35:45;8.63;;;5.00;;
9912;SDS011;41380;52.548;13.344;2022-10-12T02:38:18;11.37;;;5.13;;
9912;SDS011;41380;52.548;13.344;2022-10-12T02:40:51;9.40;;;4.93;;
9912;SDS011;41380;52.548;13.344;2022-10-12T02:43:24;8.60;;;4.77;;
9912;SDS011;41380;52.548;13.344;2022-10-12T02:45:58;10.97;;;5.40;;
9912;SDS011;41380;52.548;13.344;2022-10-12T02:48:27;8.40;;;5.30;;
9912;SDS011;41380;52.548;13.344;2022-10-12T02:50:55;8.33;;;5.00;;
9912;SDS011;41380;52.548;13.344;2022-10-12T02:53:24;9.50;;;5.23;;
9912;SDS011;41380;52.548;13.344;2022-10-12T02:55:57;10.53;;;5.53;;
9912;SDS011;41380;52.548;13.344;2022-10-12T02:58:25;10.80;;;5.53;;
9912;SDS011;41380;52.548;13.344;2022-10-12T03:00:53;12.70;;;5.43;;
9912;SDS011;41380;52.548;13.344;2022-10-12T03:03:19;7.63;;;4.60;;
9912;SDS011;41380;52.548;13.344;2022-10-12T03:05:48;8.40;;;5.20;;
9912;SDS011;41380;52.548;13.344;2022-10-12T03:08:14;11.37;;;5.43;;
9912;SDS011;41380;52.548;13.344;2022-10-12T03:10:41;8.40;;;5.47;;
9912;SDS011;41380;52.548;13.344;2022-10-12T03:13:08;8.60;;;5.13;;
9912;SDS011;41380;52.548;13.344;2022-10-12T03:15:35;8.97;;;5.53;;
9912;SDS011;41380;52.548;13.344;2022-10-12T03:18:02;8.97;;;5.53;;
9912;SDS011;41380;52.548;13.344;2022-10-12T03:20:28;11.57;;;5.70;;
9912;SDS011;41380;52.548;13.344;2022-10-12T03:22:57;9.47;;;5.53;;
9912;SDS011;41380;52.548;13.344;2022-10-12T03:25:26;10.67;;;5.90;;
9912;SDS011;41380;52.548;13.344;2022-10-12T03:27:55;12.13;;;5.83;;
9912;SDS011;41380;52.548;13.344;2022-10-12T03:30:21;9.80;;;5.70;;
9912;SDS011;41380;52.548;13.344;2022-10-12T03:32:48;6.97;;;5.40;;
9912;SDS011;41380;52.548;13.344;2022-10-12T03:35:15;9.80;;;6.13;;
9912;SDS011;41380;52.548;13.344;2022-10-12T03:37:42;10.57;;;5.80;;
9912;SDS011;41380;52.548;13.344;2022-10-12T03:40:11;10.00;;;6.33;;
9912;SDS011;41380;52.548;13.344;2022-10-12T03:42:38;7.80;;;5.70;;
9912;SDS011;41380;52.548;13.344;2022-10-12T03:45:05;8.57;;;5.30;;
9912;SDS011;41380;52.548;13.344;2022-10-12T03:47:33;9.67;;;5.60;;
9912;SDS011;41380;52.548;13.344;2022-10-12T03:50:02;9.93;;;5.67;;
9912;SDS011;41380;52.548;13.344;2022-10-12T03:52:29;11.17;;;6.33;;
9912;SDS011;41380;52.548;13.344;2022-10-12T03:54:55;9.80;;;5.80;;
9912;SDS011;41380;52.548;13.344;2022-10-12T03:57:24;13.13;;;6.00;;
9912;SDS011;41380;52.548;13.344;2022-10-12T03:59:50;10.97;;;5.97;;
9912;SDS011;41380;52.548;13.344;2022-10-12T04:02:17;11.47;;;6.87;;
9912;SDS011;41380;52.548;13.344;2022-10-12T04:04:44;12.50;;;6.20;;
9912;SDS011;41380;52.548;13.344;2022-10-12T04:07:11;9.47;;;6.20;;
9912;SDS011;41380;52.548;13.344;2022-10-12T04:09:38;11.47;;;6.53;;
9912;SDS011;41380;52.548;13.344;2022-10-12T04:12:04;14.23;;;6.47;;
9912;SDS011;41380;52.548;13.344;2022-10-12T04:14:32;11.90;;;6.23;;
9912;SDS011;41380;52.548;13.344;2022-10-12T04:16:59;9.83;;;7.10;;
9912;SDS011;41380;52.548;13.344;2022-10-12T04:19:28;11.20;;;6.57;;
9912;SDS011;41380;52.548;13.344;2022-10-12T04:21:54;11.33;;;6.40;;
9912;SDS011;41380;52.548;13.344;2022-10-12T04:24:21;10.90;;;6.77;;
9912;SDS011;41380;52.548;13.344;2022-10-12T04:26:48;15.70;;;7.53;;
9912;SDS011;41380;52.548;13.344;2022-10-12T04:29:15;9.70;;;7.07;;
9912;SDS011;41380;52.548;13.344;2022-10-12T04:31:43;12.83;;;7.57;;
9912;SDS011;41380;52.548;13.344;2022-10-12T04:34:10;12.00;;;7.50;;
9912;SDS011;41380;52.548;13.344;2022-10-12T04:36:37;11.27;;;6.87;;
9912;SDS011;41380;52.548;13.344;2022-10-12T04:39:04;10.47;;;6.80;;
9912;SDS011;41380;52.548;13.344;2022-10-12T04:41:33;15.77;;;7.70;;
9912;SDS011;41380;52.548;13.344;2022-10-12T04:43:59;11.77;;;6.93;;
9912;SDS011;41380;52.548;13.344;2022-10-12T04:46:26;11.87;;;7.00;;
9912;SDS011;41380;52.548;13.344;2022-10-12T04:48:55;11.60;;;6.90;;
9912;SDS011;41380;52.548;13.344;2022-10-12T04:51:21;13.80;;;8.37;;
9912;SDS011;41380;52.548;13.344;2022-10-12T04:53:48;15.13;;;8.40;;
9912;SDS011;41380;52.548;13.344;2022-10-12T04:56:15;11.83;;;7.57;;
9912;SDS011;41380;52.548;13.344;2022-10-12T04:58:42;16.10;;;9.97;;
9912;SDS011;41380;52.548;13.344;2022-10-12T05:01:09;15.57;;;9.50;;
9912;SDS011;41380;52.548;13.344;2022-10-12T05:03:36;13.33;;;7.97;;
9912;SDS011;41380;52.548;13.344;2022-10-12T05:06:05;15.03;;;8.57;;
9912;SDS011;41380;52.548;13.344;2022-10-12T05:08:32;12.43;;;8.03;;
9912;SDS011;41380;52.548;13.344;2022-10-12T05:10:59;11.43;;;8.07;;
9912;SDS011;41380;52.548;13.344;2022-10-12T05:13:25;12.83;;;8.10;;
9912;SDS011;41380;52.548;13.344;2022-10-12T05:15:53;16.37;;;8.53;;
9912;SDS011;41380;52.548;13.344;2022-10-12T05:18:20;13.40;;;8.33;;
9912;SDS011;41380;52.548;13.344;2022-10-12T05:20:46;16.43;;;8.80;;
9912;SDS011;41380;52.548;13.344;2022-10-12T05:23:15;15.67;;;10.40;;
9912;SDS011;41380;52.548;13.344;2022-10-12T05:25:41;15.53;;;9.33;;
9912;SDS011;41380;52.548;13.344;2022-10-12T05:28:08;14.63;;;9.43;;
9912;SDS011;41380;52.548;13.344;2022-10-12T05:30:36;16.00;;;10.07;;
9912;SDS011;41380;52.548;13.344;2022-10-12T05:33:04;15.20;;;9.73;;
9912;SDS011;41380;52.548;13.344;2022-10-12T05:35:33;14.43;;;9.27;;
9912;SDS011;41380;52.548;13.344;2022-10-12T05:38:00;15.03;;;9.70;;
9912;SDS011;41380;52.548;13.344;2022-10-12T05:40:28;12.07;;;7.73;;
9912;SDS011;41380;52.548;13.344;2022-10-12T05:42:55;14.93;;;9.60;;
9912;SDS011;41380;52.548;13.344;2022-10-12T05:45:22;13.57;;;9.00;;
9912;SDS011;41380;52.548;13.344;2022-10-12T05:47:49;12.40;;;8.77;;
9912;SDS011;41380;52.548;13.344;2022-10-12T05:50:16;13.87;;;8.80;;
9912;SDS011;41380;52.548;13.344;2022-10-12T05:52:43;13.03;;;8.77;;
9912;SDS011;41380;52.548;13.344;2022-10-12T05:55:10;12.10;;;9.33;;
9912;SDS011;41380;52.548;13.344;2022-10-12T05:57:38;16.43;;;9.77;;
9912;SDS011;41380;52.548;13.344;2022-10-12T06:00:05;11.60;;;8.40;;
9912;SDS011;41380;52.548;13.344;2022-10-12T06:02:34;19.00;;;8.90;;
9912;SDS011;41380;52.548;13.344;2022-10-12T06:05:01;15.90;;;9.60;;
9912;SDS011;41380;52.548;13.344;2022-10-12T06:07:29;19.07;;;9.37;;
9912;SDS011;41380;52.548;13.344;2022-10-12T06:09:56;11.70;;;8.20;;
9912;SDS011;41380;52.548;13.344;2022-10-12T06:12:22;12.43;;;8.70;;
9912;SDS011;41380;52.548;13.344;2022-10-12T06:14:51;14.60;;;9.17;;
9912;SDS011;41380;52.548;13.344;2022-10-12T06:17:18;15.27;;;9.13;;
9912;SDS011;41380;52.548;13.344;2022-10-12T06:19:46;16.53;;;9.13;;
9912;SDS011;41380;52.548;13.344;2022-10-12T06:22:13;15.47;;;8.57;;
9912;SDS011;41380;52.548;13.344;2022-10-12T06:24:42;14.83;;;8.20;;
9912;SDS011;41380;52.548;13.344;2022-10-12T06:27:09;13.57;;;8.37;;
9912;SDS011;41380;52.548;13.344;2022-10-12T06:29:35;14.93;;;8.00;;
9912;SDS011;41380;52.548;13.344;2022-10-12T06:32:05;17.37;;;9.33;;
9912;SDS011;41380;52.548;13.344;2022-10-12T06:34:32;15.77;;;8.03;;
9912;SDS011;41380;52.548;13.344;2022-10-12T06:36:58;18.30;;;8.77;;
9912;SDS011;41380;52.548;13.344;2022-10-12T06:39:25;14.27;;;7.90;;
9912;SDS011;41380;52.548;13.344;2022-10-12T06:41:52;13.03;;;7.73;;
9912;SDS011;41380;52.548;13.344;2022-10-12T06:44:19;15.67;;;8.03;;
9912;SDS011;41380;52.548;13.344;2022-10-12T06:46:46;11.23;;;7.20;;
9912;SDS011;41380;52.548;13.344;2022-10-12T06:49:15;15.23;;;8.70;;
9912;SDS011;41380;52.548;13.344;2022-10-12T06:51:44;13.30;;;7.97;;
9912;SDS011;41380;52.548;13.344;2022-10-12T06:54:11;12.83;;;7.70;;
9912;SDS011;41380;52.548;13.344;2022-10-12T06:56:38;16.17;;;8.77;;
9912;SDS011;41380;52.548;13.344;2022-10-12T06:59:05;19.20;;;9.33;;
9912;SDS011;41380;52.548;13.344;2022-10-12T07:01:32;17.33;;;8.63;;
9912;SDS011;41380;52.548;13.344;2022-10-12T07:03:59;14.33;;;8.17;;
9912;SDS011;41380;52.548;13.344;2022-10-12T07:06:29;17.63;;;7.87;;
9912;SDS011;41380;52.548;13.344;2022-10-12T07:08:58;12.80;;;7.37;;
9912;SDS011;41380;52.548;13.344;2022-10-12T07:11:26;21.57;;;8.27;;
9912;SDS011;41380;52.548;13.344;2022-10-12T07:13:53;15.17;;;7.87;;
9912;SDS011;41380;52.548;13.344;2022-10-12T07:16:20;15.77;;;7.67;;
9912;SDS011;41380;52.548;13.344;2022-10-12T07:18:48;15.53;;;7.73;;
9912;SDS011;41380;52.548;13.344;2022-10-12T07:21:15;14.50;;;7.87;;
9912;SDS011;41380;52.548;13.344;2022-10-12T07:23:43;19.20;;;7.57;;
9912;SDS011;41380;52.548;13.344;2022-10-12T07:26:10;15.33;;;8.07;;
9912;SDS011;41380;52.548;13.344;2022-10-12T07:28:36;18.83;;;7.67;;
9912;SDS011;41380;52.548;13.344;2022-10-12T07:31:05;14.63;;;7.37;;
9912;SDS011;41380;52.548;13.344;2022-10-12T07:33:38;13.47;;;6.80;;
9912;SDS011;41380;52.548;13.344;2022-10-12T07:36:22;14.00;;;6.57;;
9912;SDS011;41380;52.548;13.344;2022-10-12T07:38:50;20.47;;;7.23;;
9912;SDS011;41380;52.548;13.344;2022-10-12T07:41:18;12.87;;;6.83;;
9912;SDS011;41380;52.548;13.344;2022-10-12T07:43:45;12.13;;;6.60;;
9912;SDS011;41380;52.548;13.344;2022-10-12T07:46:13;11.53;;;6.77;;
9912;SDS011;41380;52.548;13.344;2022-10-12T07:48:41;15.53;;;6.70;;
9912;SDS011;41380;52.548;13.344;2022-10-12T07:51:13;18.13;;;7.80;;
9912;SDS011;41380;52.548;13.344;2022-10-12T07:53:40;19.90;;;7.67;;
9912;SDS011;41380;52.548;13.344;2022-10-12T07:56:10;14.70;;;7.03;;
9912;SDS011;41380;52.548;13.344;2022-10-12T07:58:40;16.03;;;6.70;;
9912;SDS011;41380;52.548;13.344;2022-10-12T08:01:07;15.87;;;7.43;;
9912;SDS011;41380;52.548;13.344;2022-10-12T08:03:35;22.27;;;8.07;;
9912;SDS011;41380;52.548;13.344;2022-10-12T08:06:06;22.03;;;7.77;;
9912;SDS011;41380;52.548;13.344;2022-10-12T08:08:35;17.17;;;8.13;;
9912;SDS011;41380;52.548;13.344;2022-10-12T08:11:02;17.53;;;8.30;;
9912;SDS011;41380;52.548;13.344;2022-10-12T08:13:31;18.70;;;7.77;;
9912;SDS011;41380;52.548;13.344;2022-10-12T08:15:58;21.03;;;9.00;;
9912;SDS011;41380;52.548;13.344;2022-10-12T08:18:25;12.37;;;7.43;;
9912;SDS011;41380;52.548;13.344;2022-10-12T08:20:52;12.73;;;7.60;;
9912;SDS011;41380;52.548;13.344;2022-10-12T08:23:19;14.33;;;7.80;;
9912;SDS011;41380;52.548;13.344;2022-10-12T08:25:50;15.57;;;7.20;;
9912;SDS011;41380;52.548;13.344;2022-10-12T08:28:17;13.53;;;7.67;;
9912;SDS011;41380;52.548;13.344;2022-10-12T08:30:46;13.83;;;8.40;;
9912;SDS011;41380;52.548;13.344;2022-10-12T08:33:13;14.10;;;6.97;;
9912;SDS011;41380;52.548;13.344;2022-10-12T08:35:40;11.67;;;6.77;;
9912;SDS011;41380;52.548;13.344;2022-10-12T08:38:09;14.30;;;6.53;;
9912;SDS011;41380;52.548;13.344;2022-10-12T08:40:40;15.70;;;5.70;;
9912;SDS011;41380;52.548;13.344;2022-10-12T08:43:14;13.67;;;6.13;;
9912;SDS011;41380;52.548;13.344;2022-10-12T08:45:51;11.23;;;5.53;;
9912;SDS011;41380;52.548;13.344;2022-10-12T08:48:20;14.37;;;5.40;;
9912;SDS011;41380;52.548;13.344;2022-10-12T08:50:50;14.03;;;5.87;;
9912;SDS011;41380;52.548;13.344;2022-10-12T08:53:20;18.47;;;6.20;;
9912;SDS011;41380;52.548;13.344;2022-10-12T08:55:51;15.33;;;5.63;;
9912;SDS011;41380;52.548;13.344;2022-10-12T08:58:19;12.33;;;6.47;;
9912;SDS011;41380;52.548;13.344;2022-10-12T09:00:51;16.57;;;6.97;;
9912;SDS011;41380;52.548;13.344;2022-10-12T09:03:35;12.07;;;6.00;;
9912;SDS011;41380;52.548;13.344;2022-10-12T09:06:11;12.73;;;6.70;;
9912;SDS011;41380;52.548;13.344;2022-10-12T09:08:51;12.25;;;6.78;;
9912;SDS011;41380;52.548;13.344;2022-10-12T09:11:31;17.35;;;6.95;;
9912;SDS011;41380;52.548;13.344;2022-10-12T09:14:09;14.70;;;6.50;;
9912;SDS011;41380;52.548;13.344;2022-10-12T09:16:41;11.50;;;5.90;;
9912;SDS011;41380;52.548;13.344;2022-10-12T09:19:12;9.07;;;5.72;;
9912;SDS011;41380;52.548;13.344;2022-10-12T09:21:43;15.55;;;6.43;;
9912;SDS011;41380;52.548;13.344;2022-10-12T09:24:13;10.93;;;5.40;;
9912;SDS011;41380;52.548;13.344;2022-10-12T09:26:44;16.88;;;6.15;;
9912;SDS011;41380;52.548;13.344;2022-10-12T09:29:22;9.85;;;5.13;;
9912;SDS011;41380;52.548;13.344;2022-10-12T09:31:59;10.10;;;5.68;;
9912;SDS011;41380;52.548;13.344;2022-10-12T09:34:44;16.77;;;5.80;;
9912;SDS011;41380;52.548;13.344;2022-10-12T09:37:13;12.93;;;6.65;;
9912;SDS011;41380;52.548;13.344;2022-10-12T09:39:44;14.52;;;6.32;;
9912;SDS011;41380;52.548;13.344;2022-10-12T09:42:11;10.70;;;5.82;;
9912;SDS011;41380;52.548;13.344;2022-10-12T09:44:41;15.57;;;6.28;;
9912;SDS011;41380;52.548;13.344;2022-10-12T09:47:26;11.23;;;5.35;;
9912;SDS011;41380;52.548;13.344;2022-10-12T09:49:54;10.02;;;5.18;;
9912;SDS011;41380;52.548;13.344;2022-10-12T09:52:27;14.73;;;4.85;;
9912;SDS011;41380;52.548;13.344;2022-10-12T09:54:56;9.85;;;5.05;;
9912;SDS011;41380;52.548;13.344;2022-10-12T09:57:29;12.27;;;5.50;;
9912;SDS011;41380;52.548;13.344;2022-10-12T09:59:59;11.30;;;5.05;;
9912;SDS011;41380;52.548;13.344;2022-10-12T10:02:31;12.05;;;5.38;;
9912;SDS011;41380;52.548;13.344;2022-10-12T10:05:21;14.65;;;4.80;;
9912;SDS011;41380;52.548;13.344;2022-10-12T10:07:50;11.27;;;4.88;;
9912;SDS011;41380;52.548;13.344;2022-10-12T10:10:18;9.77;;;4.30;;
9912;SDS011;41380;52.548;13.344;2022-10-12T10:12:48;9.20;;;4.43;;
9912;SDS011;41380;52.548;13.344;2022-10-12T10:15:18;9.35;;;3.72;;
9912;SDS011;41380;52.548;13.344;2022-10-12T10:17:52;6.80;;;3.80;;
9912;SDS011;41380;52.548;13.344;2022-10-12T10:20:28;10.10;;;3.65;;
9912;SDS011;41380;52.548;13.344;2022-10-12T10:22:57;9.27;;;3.85;;
9912;SDS011;41380;52.548;13.344;2022-10-12T10:25:25;7.68;;;3.63;;
9912;SDS011;41380;52.548;13.344;2022-10-12T10:30:55;7.63;;;3.35;;
9912;SDS011;41380;52.548;13.344;2022-10-12T10:33:26;9.35;;;3.88;;
9912;SDS011;41380;52.548;13.344;2022-10-12T10:35:56;10.82;;;3.80;;
9912;SDS011;41380;52.548;13.344;2022-10-12T10:38:29;7.60;;;3.25;;
9912;SDS011;41380;52.548;13.344;2022-10-12T10:40:58;10.20;;;3.20;;
9912;SDS011;41380;52.548;13.344;2022-10-12T10:43:30;8.57;;;3.40;;
9912;SDS011;41380;52.548;13.344;2022-10-12T10:45:57;8.18;;;3.35;;
9912;SDS011;41380;52.548;13.344;2022-10-12T10:48:28;8.82;;;3.42;;
9912;SDS011;41380;52.548;13.344;2022-10-12T10:50:58;12.70;;;3.42;;
9912;SDS011;41380;52.548;13.344;2022-10-12T10:53:29;11.75;;;3.30;;
9912;SDS011;41380;52.548;13.344;2022-10-12T10:55:58;8.63;;;3.08;;
9912;SDS011;41380;52.548;13.344;2022-10-12T10:58:31;5.72;;;2.83;;
9912;SDS011;41380;52.548;13.344;2022-10-12T11:01:05;6.05;;;2.80;;
9912;SDS011;41380;52.548;13.344;2022-10-12T11:03:44;8.27;;;3.17;;
9912;SDS011;41380;52.548;13.344;2022-10-12T11:06:17;8.75;;;3.33;;
9912;SDS011;41380;52.548;13.344;2022-10-12T11:08:54;6.70;;;2.80;;
9912;SDS011;41380;52.548;13.344;2022-10-12T11:11:28;8.88;;;3.28;;
9912;SDS011;41380;52.548;13.344;2022-10-12T11:14:01;6.80;;;2.60;;
9912;SDS011;41380;52.548;13.344;2022-10-12T11:16:32;5.97;;;2.70;;
9912;SDS011;41380;52.548;13.344;2022-10-12T11:19:05;6.15;;;3.30;;
9912;SDS011;41380;52.548;13.344;2022-10-12T11:21:44;7.13;;;3.30;;
9912;SDS011;41380;52.548;13.344;2022-10-12T11:24:14;5.30;;;2.50;;
9912;SDS011;41380;52.548;13.344;2022-10-12T11:26:44;8.43;;;2.50;;
9912;SDS011;41380;52.548;13.344;2022-10-12T11:29:14;8.20;;;2.72;;
9912;SDS011;41380;52.548;13.344;2022-10-12T11:31:44;6.43;;;2.65;;
9912;SDS011;41380;52.548;13.344;2022-10-12T11:34:20;8.77;;;2.40;;
9912;SDS011;41380;52.548;13.344;2022-10-12T11:36:50;7.53;;;2.83;;
9912;SDS011;41380;52.548;13.344;2022-10-12T11:39:21;6.55;;;2.90;;
9912;SDS011;41380;52.548;13.344;2022-10-12T11:41:57;7.82;;;2.80;;
9912;SDS011;41380;52.548;13.344;2022-10-12T11:44:28;8.90;;;3.08;;
9912;SDS011;41380;52.548;13.344;2022-10-12T11:47:02;5.93;;;2.58;;
9912;SDS011;41380;52.548;13.344;2022-10-12T11:49:35;9.98;;;2.63;;
9912;SDS011;41380;52.548;13.344;2022-10-12T11:52:11;9.10;;;2.40;;
9912;SDS011;41380;52.548;13.344;2022-10-12T11:54:39;7.88;;;2.95;;
9912;SDS011;41380;52.548;13.344;2022-10-12T11:57:11;8.40;;;2.53;;
9912;SDS011;41380;52.548;13.344;2022-10-12T11:59:46;9.85;;;2.75;;
9912;SDS011;41380;52.548;13.344;2022-10-12T12:02:20;6.40;;;2.83;;
9912;SDS011;41380;52.548;13.344;2022-10-12T12:04:57;6.75;;;3.05;;
9912;SDS011;41380;52.548;13.344;2022-10-12T12:07:38;5.75;;;2.60;;
9912;SDS011;41380;52.548;13.344;2022-10-12T12:13:16;8.65;;;4.07;;
9912;SDS011;41380;52.548;13.344;2022-10-12T12:19:09;7.25;;;2.78;;
9912;SDS011;41380;52.548;13.344;2022-10-12T12:25:13;6.45;;;3.15;;
9912;SDS011;41380;52.548;13.344;2022-10-12T12:27:48;6.47;;;2.65;;
9912;SDS011;41380;52.548;13.344;2022-10-12T12:30:22;5.85;;;2.60;;
9912;SDS011;41380;52.548;13.344;2022-10-12T12:32:58;8.43;;;2.83;;
9912;SDS011;41380;52.548;13.344;2022-10-12T12:35:32;12.93;;;8.48;;
9912;SDS011;41380;52.548;13.344;2022-10-12T12:40:58;7.18;;;3.40;;
9912;SDS011;41380;52.548;13.344;2022-10-12T12:43:36;5.90;;;3.25;;
9912;SDS011;41380;52.548;13.344;2022-10-12T12:46:15;7.07;;;2.85;;
9912;SDS011;41380;52.548;13.344;2022-10-12T12:49:01;6.65;;;2.30;;
9912;SDS011;41380;52.548;13.344;2022-10-12T12:51:33;8.38;;;2.65;;
9912;SDS011;41380;52.548;13.344;2022-10-12T12:54:04;6.15;;;2.60;;
9912;SDS011;41380;52.548;13.344;2022-10-12T12:56:40;4.28;;;2.33;;
9912;SDS011;41380;52.548;13.344;2022-10-12T12:59:49;4.57;;;2.15;;
9912;SDS011;41380;52.548;13.344;2022-10-12T13:08:49;9.70;;;2.75;;
9912;SDS011;41380;52.548;13.344;2022-10-12T13:11:38;8.35;;;2.75;;
9912;SDS011;41380;52.548;13.344;2022-10-12T13:14:23;6.97;;;2.83;;
9912;SDS011;41380;52.548;13.344;2022-10-12T13:17:22;7.55;;;3.03;;
9912;SDS011;41380;52.548;13.344;2022-10-12T13:20:09;5.55;;;3.20;;
9912;SDS011;41380;52.548;13.344;2022-10-12T13:22:48;6.28;;;3.22;;
9912;SDS011;41380;52.548;13.344;2022-10-12T13:25:32;6.90;;;2.80;;
9912;SDS011;41380;52.548;13.344;2022-10-12T13:28:11;7.97;;;2.75;;
9912;SDS011;41380;52.548;13.344;2022-10-12T13:30:41;5.40;;;3.05;;
9912;SDS011;41380;52.548;13.344;2022-10-12T13:33:14;8.07;;;3.05;;
9912;SDS011;41380;52.548;13.344;2022-10-12T13:35:47;10.13;;;2.75;;
9912;SDS011;41380;52.548;13.344;2022-10-12T13:38:23;5.72;;;2.42;;
9912;SDS011;41380;52.548;13.344;2022-10-12T13:40:53;8.25;;;2.50;;
9912;SDS011;41380;52.548;13.344;2022-10-12T13:43:30;4.63;;;2.50;;
9912;SDS011;41380;52.548;13.344;2022-10-12T13:45:59;4.00;;;2.33;;
9912;SDS011;41380;52.548;13.344;2022-10-12T13:48:26;6.93;;;3.03;;
9912;SDS011;41380;52.548;13.344;2022-10-12T13:50:55;6.32;;;2.50;;
9912;SDS011;41380;52.548;13.344;2022-10-12T13:53:26;8.25;;;2.75;;
9912;SDS011;41380;52.548;13.344;2022-10-12T13:56:00;6.47;;;3.00;;
9912;SDS011;41380;52.548;13.344;2022-10-12T13:58:32;7.10;;;2.97;;
9912;SDS011;41380;52.548;13.344;2022-10-12T14:01:03;8.32;;;2.60;;
9912;SDS011;41380;52.548;13.344;2022-10-12T14:03:34;8.23;;;2.90;;
9912;SDS011;41380;52.548;13.344;2022-10-12T14:06:02;7.15;;;2.80;;
9912;SDS011;41380;52.548;13.344;2022-10-12T14:08:37;6.00;;;2.90;;
9912;SDS011;41380;52.548;13.344;2022-10-12T14:11:04;7.75;;;3.03;;
9912;SDS011;41380;52.548;13.344;2022-10-12T14:13:33;6.30;;;2.63;;
9912;SDS011;41380;52.548;13.344;2022-10-12T14:16:01;6.78;;;2.65;;
9912;SDS011;41380;52.548;13.344;2022-10-12T14:18:31;6.30;;;2.42;;
9912;SDS011;41380;52.548;13.344;2022-10-12T14:21:04;6.10;;;2.20;;
9912;SDS011;41380;52.548;13.344;2022-10-12T14:23:39;7.53;;;2.60;;
9912;SDS011;41380;52.548;13.344;2022-10-12T14:32:00;7.40;;;3.22;;
9912;SDS011;41380;52.548;13.344;2022-10-12T14:34:39;6.10;;;2.78;;
9912;SDS011;41380;52.548;13.344;2022-10-12T14:37:27;6.65;;;2.47;;
9912;SDS011;41380;52.548;13.344;2022-10-12T14:39:55;4.97;;;2.72;;
9912;SDS011;41380;52.548;13.344;2022-10-12T14:42:38;8.52;;;3.10;;
9912;SDS011;41380;52.548;13.344;2022-10-12T14:45:23;6.35;;;2.75;;
9912;SDS011;41380;52.548;13.344;2022-10-12T14:47:51;8.40;;;2.97;;
9912;SDS011;41380;52.548;13.344;2022-10-12T14:50:19;4.47;;;2.75;;
9912;SDS011;41380;52.548;13.344;2022-10-12T14:52:48;6.55;;;2.53;;
9912;SDS011;41380;52.548;13.344;2022-10-12T14:55:17;6.93;;;3.15;;
9912;SDS011;41380;52.548;13.344;2022-10-12T14:57:46;7.18;;;2.92;;
9912;SDS011;41380;52.548;13.344;2022-10-12T15:00:13;6.55;;;2.83;;
9912;SDS011;41380;52.548;13.344;2022-10-12T15:02:43;5.32;;;2.70;;
9912;SDS011;41380;52.548;13.344;2022-10-12T15:05:10;3.45;;;2.17;;
9912;SDS011;41380;52.548;13.344;2022-10-12T15:07:39;6.25;;;2.45;;
9912;SDS011;41380;52.548;13.344;2022-10-12T15:10:08;5.78;;;2.58;;
9912;SDS011;41380;52.548;13.344;2022-10-12T15:12:35;7.28;;;2.60;;
9912;SDS011;41380;52.548;13.344;2022-10-12T15:15:15;7.15;;;2.78;;
9912;SDS011;41380;52.548;13.344;2022-10-12T15:18:02;6.72;;;2.90;;
9912;SDS011;41380;52.548;13.344;2022-10-12T15:20:30;8.77;;;4.68;;
9912;SDS011;41380;52.548;13.344;2022-10-12T15:22:58;6.97;;;3.10;;
9912;SDS011;41380;52.548;13.344;2022-10-12T15:25:27;9.38;;;3.00;;
9912;SDS011;41380;52.548;13.344;2022-10-12T15:28:03;5.85;;;2.85;;
9912;SDS011;41380;52.548;13.344;2022-10-12T15:30:32;6.65;;;2.78;;
9912;SDS011;41380;52.548;13.344;2022-10-12T15:32:59;4.70;;;2.75;;